sensor_id;sensor_type;location;lat;lon;timestamp;P1;durP1;ratioP1;P2;durP2;ratioP2
34876;SDS011;21086;44.780;17.194;2024-02-26T00:01:31;50.10;;;32.28;;
34876;SDS011;21086;44.780;17.194;2024-02-26T00:03:59;48.17;;;29.85;;
34876;SDS011;21086;44.780;17.194;2024-02-26T00:06:29;46.92;;;28.98;;
34876;SDS011;21086;44.780;17.194;2024-02-26T00:08:56;53.28;;;34.28;;
34876;SDS011;21086;44.780;17.194;2024-02-26T00:11:23;51.42;;;31.58;;
34876;SDS011;21086;44.780;17.194;2024-02-26T00:13:50;47.67;;;29.02;;
34876;SDS011;21086;44.780;17.194;2024-02-26T00:16:17;50.35;;;30.05;;
34876;SDS011;21086;44.780;17.194;2024-02-26T00:18:44;50.22;;;32.53;;
34876;SDS011;21086;44.780;17.194;2024-02-26T00:21:15;50.55;;;29.20;;
34876;SDS011;21086;44.780;17.194;2024-02-26T00:23:43;50.47;;;30.40;;
34876;SDS011;21086;44.780;17.194;2024-02-26T00:26:10;51.33;;;31.75;;
34876;SDS011;21086;44.780;17.194;2024-02-26T00:28:37;43.97;;;27.83;;
34876;SDS011;21086;44.780;17.194;2024-02-26T00:31:04;43.40;;;26.73;;
34876;SDS011;21086;44.780;17.194;2024-02-26T00:33:31;43.72;;;25.55;;
34876;SDS011;21086;44.780;17.194;2024-02-26T00:35:58;46.35;;;27.42;;
34876;SDS011;21086;44.780;17.194;2024-02-26T00:38:26;40.05;;;26.08;;
34876;SDS011;21086;44.780;17.194;2024-02-26T00:40:53;39.05;;;24.10;;
34876;SDS011;21086;44.780;17.194;2024-02-26T00:43:20;40.63;;;25.88;;
34876;SDS011;21086;44.780;17.194;2024-02-26T00:45:47;37.90;;;24.27;;
34876;SDS011;21086;44.780;17.194;2024-02-26T00:48:16;44.28;;;25.05;;
34876;SDS011;21086;44.780;17.194;2024-02-26T00:50:43;40.80;;;23.95;;
34876;SDS011;21086;44.780;17.194;2024-02-26T00:53:10;38.97;;;25.13;;
34876;SDS011;21086;44.780;17.194;2024-02-26T00:55:37;40.03;;;23.92;;
34876;SDS011;21086;44.780;17.194;2024-02-26T00:58:04;41.90;;;24.38;;
34876;SDS011;21086;44.780;17.194;2024-02-26T01:00:31;41.03;;;23.08;;
34876;SDS011;21086;44.780;17.194;2024-02-26T01:02:58;41.88;;;24.42;;
34876;SDS011;21086;44.780;17.194;2024-02-26T01:05:26;37.67;;;24.13;;
34876;SDS011;21086;44.780;17.194;2024-02-26T01:07:53;41.70;;;25.45;;
34876;SDS011;21086;44.780;17.194;2024-02-26T01:10:20;38.28;;;25.38;;
34876;SDS011;21086;44.780;17.194;2024-02-26T01:12:47;43.17;;;26.85;;
34876;SDS011;21086;44.780;17.194;2024-02-26T01:15:14;51.17;;;29.25;;
34876;SDS011;21086;44.780;17.194;2024-02-26T01:17:42;47.78;;;30.30;;
34876;SDS011;21086;44.780;17.194;2024-02-26T01:20:09;47.88;;;29.25;;
34876;SDS011;21086;44.780;17.194;2024-02-26T01:22:36;45.78;;;27.48;;
34876;SDS011;21086;44.780;17.194;2024-02-26T01:25:04;45.83;;;27.90;;
34876;SDS011;21086;44.780;17.194;2024-02-26T01:27:31;47.28;;;27.75;;
34876;SDS011;21086;44.780;17.194;2024-02-26T01:29:58;42.55;;;27.08;;
34876;SDS011;21086;44.780;17.194;2024-02-26T01:32:25;53.35;;;28.77;;
34876;SDS011;21086;44.780;17.194;2024-02-26T01:34:52;42.70;;;26.80;;
34876;SDS011;21086;44.780;17.194;2024-02-26T01:37:19;42.05;;;25.35;;
34876;SDS011;21086;44.780;17.194;2024-02-26T01:39:46;43.83;;;26.02;;
34876;SDS011;21086;44.780;17.194;2024-02-26T01:42:13;36.78;;;25.00;;
34876;SDS011;21086;44.780;17.194;2024-02-26T01:44:40;47.70;;;26.85;;
34876;SDS011;21086;44.780;17.194;2024-02-26T01:47:10;43.92;;;26.80;;
34876;SDS011;21086;44.780;17.194;2024-02-26T01:49:39;41.30;;;26.50;;
34876;SDS011;21086;44.780;17.194;2024-02-26T01:52:08;47.55;;;28.42;;
34876;SDS011;21086;44.780;17.194;2024-02-26T01:54:36;45.63;;;27.85;;
34876;SDS011;21086;44.780;17.194;2024-02-26T01:57:05;46.85;;;26.98;;
34876;SDS011;21086;44.780;17.194;2024-02-26T01:59:33;53.40;;;30.00;;
34876;SDS011;21086;44.780;17.194;2024-02-26T02:02:02;45.38;;;28.45;;
34876;SDS011;21086;44.780;17.194;2024-02-26T02:04:31;50.85;;;30.77;;
34876;SDS011;21086;44.780;17.194;2024-02-26T02:06:59;51.33;;;30.80;;
34876;SDS011;21086;44.780;17.194;2024-02-26T02:09:28;48.00;;;31.40;;
34876;SDS011;21086;44.780;17.194;2024-02-26T02:11:55;48.05;;;29.98;;
34876;SDS011;21086;44.780;17.194;2024-02-26T02:14:22;47.97;;;29.95;;
34876;SDS011;21086;44.780;17.194;2024-02-26T02:16:50;42.35;;;28.15;;
34876;SDS011;21086;44.780;17.194;2024-02-26T02:19:17;46.85;;;29.23;;
34876;SDS011;21086;44.780;17.194;2024-02-26T02:21:44;43.33;;;26.73;;
34876;SDS011;21086;44.780;17.194;2024-02-26T02:24:11;43.17;;;27.23;;
34876;SDS011;21086;44.780;17.194;2024-02-26T02:26:38;37.38;;;25.48;;
34876;SDS011;21086;44.780;17.194;2024-02-26T02:29:06;44.47;;;26.73;;
34876;SDS011;21086;44.780;17.194;2024-02-26T02:31:33;39.38;;;24.55;;
34876;SDS011;21086;44.780;17.194;2024-02-26T02:34:00;37.97;;;23.95;;
34876;SDS011;21086;44.780;17.194;2024-02-26T02:36:28;35.72;;;23.30;;
34876;SDS011;21086;44.780;17.194;2024-02-26T02:38:55;38.35;;;23.48;;
34876;SDS011;21086;44.780;17.194;2024-02-26T02:41:22;40.08;;;25.08;;
34876;SDS011;21086;44.780;17.194;2024-02-26T02:43:49;38.10;;;24.85;;
34876;SDS011;21086;44.780;17.194;2024-02-26T02:46:16;40.75;;;25.70;;
34876;SDS011;21086;44.780;17.194;2024-02-26T02:48:43;45.97;;;26.73;;
34876;SDS011;21086;44.780;17.194;2024-02-26T02:51:11;41.88;;;27.90;;
34876;SDS011;21086;44.780;17.194;2024-02-26T02:53:38;43.90;;;27.48;;
34876;SDS011;21086;44.780;17.194;2024-02-26T02:56:05;44.42;;;27.65;;
34876;SDS011;21086;44.780;17.194;2024-02-26T02:58:32;45.45;;;28.42;;
34876;SDS011;21086;44.780;17.194;2024-02-26T03:00:59;46.33;;;27.83;;
34876;SDS011;21086;44.780;17.194;2024-02-26T03:03:27;43.90;;;27.42;;
34876;SDS011;21086;44.780;17.194;2024-02-26T03:05:55;44.08;;;27.00;;
34876;SDS011;21086;44.780;17.194;2024-02-26T03:08:22;51.75;;;28.88;;
34876;SDS011;21086;44.780;17.194;2024-02-26T03:10:50;46.35;;;26.83;;
34876;SDS011;21086;44.780;17.194;2024-02-26T03:13:17;47.58;;;26.80;;
34876;SDS011;21086;44.780;17.194;2024-02-26T03:15:44;44.33;;;25.00;;
34876;SDS011;21086;44.780;17.194;2024-02-26T03:18:11;41.95;;;25.40;;
34876;SDS011;21086;44.780;17.194;2024-02-26T03:20:38;39.53;;;23.90;;
34876;SDS011;21086;44.780;17.194;2024-02-26T03:23:05;34.47;;;21.88;;
34876;SDS011;21086;44.780;17.194;2024-02-26T03:25:32;32.83;;;20.08;;
34876;SDS011;21086;44.780;17.194;2024-02-26T03:27:59;29.40;;;18.73;;
34876;SDS011;21086;44.780;17.194;2024-02-26T03:30:26;26.85;;;17.15;;
34876;SDS011;21086;44.780;17.194;2024-02-26T03:32:53;28.00;;;15.68;;
34876;SDS011;21086;44.780;17.194;2024-02-26T03:35:21;23.88;;;14.52;;
34876;SDS011;21086;44.780;17.194;2024-02-26T03:37:48;25.35;;;15.30;;
34876;SDS011;21086;44.780;17.194;2024-02-26T03:40:16;22.13;;;14.73;;
34876;SDS011;21086;44.780;17.194;2024-02-26T03:42:45;26.42;;;16.83;;
34876;SDS011;21086;44.780;17.194;2024-02-26T03:45:13;28.13;;;17.50;;
34876;SDS011;21086;44.780;17.194;2024-02-26T03:47:40;27.33;;;17.85;;
34876;SDS011;21086;44.780;17.194;2024-02-26T03:50:07;28.30;;;19.30;;
34876;SDS011;21086;44.780;17.194;2024-02-26T03:52:35;33.50;;;20.17;;
34876;SDS011;21086;44.780;17.194;2024-02-26T03:55:02;31.67;;;20.55;;
34876;SDS011;21086;44.780;17.194;2024-02-26T03:57:29;33.30;;;19.35;;
34876;SDS011;21086;44.780;17.194;2024-02-26T03:59:56;30.42;;;20.08;;
34876;SDS011;21086;44.780;17.194;2024-02-26T04:02:23;32.97;;;21.35;;
34876;SDS011;21086;44.780;17.194;2024-02-26T04:04:51;33.20;;;21.17;;
34876;SDS011;21086;44.780;17.194;2024-02-26T04:07:19;39.75;;;22.70;;
34876;SDS011;21086;44.780;17.194;2024-02-26T04:09:46;37.45;;;24.27;;
34876;SDS011;21086;44.780;17.194;2024-02-26T04:12:13;41.15;;;23.20;;
34876;SDS011;21086;44.780;17.194;2024-02-26T04:14:41;42.67;;;24.80;;
34876;SDS011;21086;44.780;17.194;2024-02-26T04:17:08;37.20;;;25.13;;
34876;SDS011;21086;44.780;17.194;2024-02-26T04:19:35;41.20;;;23.85;;
34876;SDS011;21086;44.780;17.194;2024-02-26T04:22:02;46.05;;;26.15;;
34876;SDS011;21086;44.780;17.194;2024-02-26T04:24:29;51.17;;;29.38;;
34876;SDS011;21086;44.780;17.194;2024-02-26T04:26:56;51.85;;;29.35;;
34876;SDS011;21086;44.780;17.194;2024-02-26T04:29:23;47.72;;;28.35;;
34876;SDS011;21086;44.780;17.194;2024-02-26T04:31:50;53.67;;;29.05;;
34876;SDS011;21086;44.780;17.194;2024-02-26T04:34:17;51.25;;;29.10;;
34876;SDS011;21086;44.780;17.194;2024-02-26T04:36:44;45.38;;;26.80;;
34876;SDS011;21086;44.780;17.194;2024-02-26T04:39:12;41.78;;;25.85;;
34876;SDS011;21086;44.780;17.194;2024-02-26T04:41:39;36.45;;;22.55;;
34876;SDS011;21086;44.780;17.194;2024-02-26T04:44:06;35.08;;;19.85;;
34876;SDS011;21086;44.780;17.194;2024-02-26T04:46:33;30.90;;;21.25;;
34876;SDS011;21086;44.780;17.194;2024-02-26T04:49:00;40.28;;;22.05;;
34876;SDS011;21086;44.780;17.194;2024-02-26T04:51:28;34.03;;;21.30;;
34876;SDS011;21086;44.780;17.194;2024-02-26T04:53:55;37.42;;;22.77;;
34876;SDS011;21086;44.780;17.194;2024-02-26T04:56:22;38.55;;;23.27;;
34876;SDS011;21086;44.780;17.194;2024-02-26T04:58:49;38.05;;;23.17;;
34876;SDS011;21086;44.780;17.194;2024-02-26T05:01:16;39.70;;;24.42;;
34876;SDS011;21086;44.780;17.194;2024-02-26T05:03:43;38.45;;;24.75;;
34876;SDS011;21086;44.780;17.194;2024-02-26T05:06:10;35.97;;;23.33;;
34876;SDS011;21086;44.780;17.194;2024-02-26T05:08:38;37.80;;;23.67;;
34876;SDS011;21086;44.780;17.194;2024-02-26T05:11:05;37.03;;;23.48;;
34876;SDS011;21086;44.780;17.194;2024-02-26T05:13:32;43.40;;;26.52;;
34876;SDS011;21086;44.780;17.194;2024-02-26T05:15:59;40.55;;;25.00;;
34876;SDS011;21086;44.780;17.194;2024-02-26T05:18:27;26.63;;;17.40;;
34876;SDS011;21086;44.780;17.194;2024-02-26T05:20:54;24.27;;;16.10;;
34876;SDS011;21086;44.780;17.194;2024-02-26T05:23:21;27.17;;;16.63;;
34876;SDS011;21086;44.780;17.194;2024-02-26T05:25:49;26.80;;;17.35;;
34876;SDS011;21086;44.780;17.194;2024-02-26T05:28:16;30.52;;;18.20;;
34876;SDS011;21086;44.780;17.194;2024-02-26T05:30:47;28.98;;;19.40;;
34876;SDS011;21086;44.780;17.194;2024-02-26T05:33:14;33.78;;;21.13;;
34876;SDS011;21086;44.780;17.194;2024-02-26T05:35:44;31.92;;;20.98;;
34876;SDS011;21086;44.780;17.194;2024-02-26T05:38:11;28.35;;;19.77;;
34876;SDS011;21086;44.780;17.194;2024-02-26T05:40:38;38.00;;;23.35;;
34876;SDS011;21086;44.780;17.194;2024-02-26T05:43:05;40.63;;;25.13;;
34876;SDS011;21086;44.780;17.194;2024-02-26T05:45:32;45.63;;;30.05;;
34876;SDS011;21086;44.780;17.194;2024-02-26T05:48:00;54.15;;;30.88;;
34876;SDS011;21086;44.780;17.194;2024-02-26T05:50:27;54.25;;;34.42;;
34876;SDS011;21086;44.780;17.194;2024-02-26T05:52:54;68.75;;;40.35;;
34876;SDS011;21086;44.780;17.194;2024-02-26T05:55:21;79.32;;;43.25;;
34876;SDS011;21086;44.780;17.194;2024-02-26T05:57:48;87.63;;;44.88;;
34876;SDS011;21086;44.780;17.194;2024-02-26T06:00:16;78.28;;;40.88;;
34876;SDS011;21086;44.780;17.194;2024-02-26T06:02:43;71.20;;;39.67;;
34876;SDS011;21086;44.780;17.194;2024-02-26T06:05:10;58.22;;;36.67;;
34876;SDS011;21086;44.780;17.194;2024-02-26T06:07:37;65.00;;;39.15;;
34876;SDS011;21086;44.780;17.194;2024-02-26T06:10:04;55.25;;;35.45;;
34876;SDS011;21086;44.780;17.194;2024-02-26T06:12:34;50.05;;;34.30;;
34876;SDS011;21086;44.780;17.194;2024-02-26T06:15:02;57.05;;;34.33;;
34876;SDS011;21086;44.780;17.194;2024-02-26T06:17:31;51.38;;;32.33;;
34876;SDS011;21086;44.780;17.194;2024-02-26T06:19:58;50.05;;;31.80;;
34876;SDS011;21086;44.780;17.194;2024-02-26T06:22:26;46.08;;;30.30;;
34876;SDS011;21086;44.780;17.194;2024-02-26T06:24:53;41.47;;;26.70;;
34876;SDS011;21086;44.780;17.194;2024-02-26T06:27:20;43.47;;;27.35;;
34876;SDS011;21086;44.780;17.194;2024-02-26T06:29:48;38.85;;;26.00;;
34876;SDS011;21086;44.780;17.194;2024-02-26T06:32:15;41.50;;;26.80;;
34876;SDS011;21086;44.780;17.194;2024-02-26T06:34:42;41.58;;;26.67;;
34876;SDS011;21086;44.780;17.194;2024-02-26T06:37:10;45.55;;;27.88;;
34876;SDS011;21086;44.780;17.194;2024-02-26T06:39:37;39.72;;;26.67;;
34876;SDS011;21086;44.780;17.194;2024-02-26T06:42:05;44.28;;;29.15;;
34876;SDS011;21086;44.780;17.194;2024-02-26T06:44:32;39.33;;;26.63;;
34876;SDS011;21086;44.780;17.194;2024-02-26T06:46:59;49.72;;;28.55;;
34876;SDS011;21086;44.780;17.194;2024-02-26T06:49:27;46.13;;;30.70;;
34876;SDS011;21086;44.780;17.194;2024-02-26T06:51:55;46.67;;;30.38;;
34876;SDS011;21086;44.780;17.194;2024-02-26T06:54:22;50.83;;;27.48;;
34876;SDS011;21086;44.780;17.194;2024-02-26T06:56:49;48.67;;;26.83;;
34876;SDS011;21086;44.780;17.194;2024-02-26T06:59:17;38.20;;;23.13;;
34876;SDS011;21086;44.780;17.194;2024-02-26T07:01:45;36.10;;;23.77;;
34876;SDS011;21086;44.780;17.194;2024-02-26T07:04:12;36.80;;;23.55;;
34876;SDS011;21086;44.780;17.194;2024-02-26T07:06:39;35.25;;;22.25;;
34876;SDS011;21086;44.780;17.194;2024-02-26T07:09:06;35.13;;;22.48;;
34876;SDS011;21086;44.780;17.194;2024-02-26T07:11:33;35.40;;;23.63;;
34876;SDS011;21086;44.780;17.194;2024-02-26T07:14:00;32.90;;;21.42;;
34876;SDS011;21086;44.780;17.194;2024-02-26T07:16:27;38.83;;;23.98;;
34876;SDS011;21086;44.780;17.194;2024-02-26T07:18:54;35.80;;;23.42;;
34876;SDS011;21086;44.780;17.194;2024-02-26T07:21:21;33.63;;;21.88;;
34876;SDS011;21086;44.780;17.194;2024-02-26T07:23:48;36.92;;;25.02;;
34876;SDS011;21086;44.780;17.194;2024-02-26T07:26:16;47.42;;;29.95;;
34876;SDS011;21086;44.780;17.194;2024-02-26T07:28:45;43.60;;;27.60;;
34876;SDS011;21086;44.780;17.194;2024-02-26T07:31:12;44.90;;;28.63;;
34876;SDS011;21086;44.780;17.194;2024-02-26T07:33:39;42.97;;;27.45;;
34876;SDS011;21086;44.780;17.194;2024-02-26T07:36:06;45.50;;;29.58;;
34876;SDS011;21086;44.780;17.194;2024-02-26T07:38:33;45.20;;;29.30;;
34876;SDS011;21086;44.780;17.194;2024-02-26T07:41:09;48.78;;;31.50;;
34876;SDS011;21086;44.780;17.194;2024-02-26T07:43:36;53.08;;;32.90;;
34876;SDS011;21086;44.780;17.194;2024-02-26T07:46:03;49.30;;;31.85;;
34876;SDS011;21086;44.780;17.194;2024-02-26T07:48:30;46.38;;;29.70;;
34876;SDS011;21086;44.780;17.194;2024-02-26T07:50:58;39.67;;;23.88;;
34876;SDS011;21086;44.780;17.194;2024-02-26T07:53:26;32.22;;;20.45;;
34876;SDS011;21086;44.780;17.194;2024-02-26T07:55:53;26.73;;;18.45;;
34876;SDS011;21086;44.780;17.194;2024-02-26T07:58:20;25.65;;;16.70;;
34876;SDS011;21086;44.780;17.194;2024-02-26T08:00:48;20.58;;;13.13;;
34876;SDS011;21086;44.780;17.194;2024-02-26T08:03:15;26.58;;;15.35;;
34876;SDS011;21086;44.780;17.194;2024-02-26T08:05:42;22.40;;;15.50;;
34876;SDS011;21086;44.780;17.194;2024-02-26T08:08:10;19.73;;;13.60;;
34876;SDS011;21086;44.780;17.194;2024-02-26T08:10:37;21.98;;;12.82;;
34876;SDS011;21086;44.780;17.194;2024-02-26T08:13:04;22.63;;;13.40;;
34876;SDS011;21086;44.780;17.194;2024-02-26T08:15:32;18.88;;;11.38;;
34876;SDS011;21086;44.780;17.194;2024-02-26T08:18:01;17.23;;;11.00;;
34876;SDS011;21086;44.780;17.194;2024-02-26T08:20:30;19.08;;;11.98;;
34876;SDS011;21086;44.780;17.194;2024-02-26T08:22:57;17.75;;;11.70;;
34876;SDS011;21086;44.780;17.194;2024-02-26T08:25:24;16.17;;;11.10;;
34876;SDS011;21086;44.780;17.194;2024-02-26T08:27:52;20.90;;;11.00;;
34876;SDS011;21086;44.780;17.194;2024-02-26T08:30:19;16.80;;;10.57;;
34876;SDS011;21086;44.780;17.194;2024-02-26T08:32:47;12.65;;;6.93;;
34876;SDS011;21086;44.780;17.194;2024-02-26T08:35:17;13.57;;;8.07;;
34876;SDS011;21086;44.780;17.194;2024-02-26T08:37:45;14.73;;;9.15;;
34876;SDS011;21086;44.780;17.194;2024-02-26T08:40:14;19.65;;;13.05;;
34876;SDS011;21086;44.780;17.194;2024-02-26T08:42:41;20.80;;;13.45;;
34876;SDS011;21086;44.780;17.194;2024-02-26T08:45:09;21.50;;;12.85;;
34876;SDS011;21086;44.780;17.194;2024-02-26T08:47:36;23.17;;;14.05;;
34876;SDS011;21086;44.780;17.194;2024-02-26T08:50:04;20.13;;;12.85;;
34876;SDS011;21086;44.780;17.194;2024-02-26T08:52:31;20.23;;;11.38;;
34876;SDS011;21086;44.780;17.194;2024-02-26T08:54:59;18.02;;;10.30;;
34876;SDS011;21086;44.780;17.194;2024-02-26T08:57:26;21.52;;;12.13;;
34876;SDS011;21086;44.780;17.194;2024-02-26T08:59:54;25.30;;;13.02;;
34876;SDS011;21086;44.780;17.194;2024-02-26T09:02:21;21.52;;;12.35;;
34876;SDS011;21086;44.780;17.194;2024-02-26T09:04:48;13.23;;;7.10;;
34876;SDS011;21086;44.780;17.194;2024-02-26T09:07:17;14.63;;;6.03;;
34876;SDS011;21086;44.780;17.194;2024-02-26T09:09:44;14.23;;;6.60;;
34876;SDS011;21086;44.780;17.194;2024-02-26T09:12:11;15.82;;;7.68;;
34876;SDS011;21086;44.780;17.194;2024-02-26T09:14:39;9.93;;;6.22;;
34876;SDS011;21086;44.780;17.194;2024-02-26T09:17:06;12.52;;;6.10;;
34876;SDS011;21086;44.780;17.194;2024-02-26T09:19:34;8.95;;;4.38;;
34876;SDS011;21086;44.780;17.194;2024-02-26T09:22:01;9.55;;;4.50;;
34876;SDS011;21086;44.780;17.194;2024-02-26T09:24:28;8.23;;;4.63;;
34876;SDS011;21086;44.780;17.194;2024-02-26T09:26:55;6.47;;;4.32;;
34876;SDS011;21086;44.780;17.194;2024-02-26T09:29:22;11.18;;;4.57;;
34876;SDS011;21086;44.780;17.194;2024-02-26T09:31:49;7.22;;;4.32;;
34876;SDS011;21086;44.780;17.194;2024-02-26T09:34:16;11.30;;;5.28;;
34876;SDS011;21086;44.780;17.194;2024-02-26T09:36:44;11.40;;;5.72;;
34876;SDS011;21086;44.780;17.194;2024-02-26T09:39:11;8.65;;;5.78;;
34876;SDS011;21086;44.780;17.194;2024-02-26T09:41:38;16.52;;;7.75;;
34876;SDS011;21086;44.780;17.194;2024-02-26T09:44:06;13.90;;;8.35;;
34876;SDS011;21086;44.780;17.194;2024-02-26T09:46:33;16.75;;;8.38;;
34876;SDS011;21086;44.780;17.194;2024-02-26T09:49:00;14.20;;;7.82;;
34876;SDS011;21086;44.780;17.194;2024-02-26T09:51:28;14.75;;;7.82;;
34876;SDS011;21086;44.780;17.194;2024-02-26T09:53:56;11.98;;;7.13;;
34876;SDS011;21086;44.780;17.194;2024-02-26T09:56:26;15.65;;;6.60;;
34876;SDS011;21086;44.780;17.194;2024-02-26T09:58:54;16.33;;;8.90;;
34876;SDS011;21086;44.780;17.194;2024-02-26T10:01:23;10.30;;;6.85;;
34876;SDS011;21086;44.780;17.194;2024-02-26T10:03:52;9.70;;;6.05;;
34876;SDS011;21086;44.780;17.194;2024-02-26T10:06:24;15.88;;;7.03;;
34876;SDS011;21086;44.780;17.194;2024-02-26T10:08:55;7.68;;;5.15;;
34876;SDS011;21086;44.780;17.194;2024-02-26T10:11:25;13.57;;;6.55;;
34876;SDS011;21086;44.780;17.194;2024-02-26T10:13:54;14.15;;;6.15;;
34876;SDS011;21086;44.780;17.194;2024-02-26T10:16:24;13.80;;;6.72;;
34876;SDS011;21086;44.780;17.194;2024-02-26T10:18:52;9.73;;;5.90;;
34876;SDS011;21086;44.780;17.194;2024-02-26T10:21:25;10.05;;;5.63;;
34876;SDS011;21086;44.780;17.194;2024-02-26T10:23:53;8.15;;;5.40;;
34876;SDS011;21086;44.780;17.194;2024-02-26T10:26:21;11.65;;;5.60;;
34876;SDS011;21086;44.780;17.194;2024-02-26T10:28:48;11.00;;;5.57;;
34876;SDS011;21086;44.780;17.194;2024-02-26T10:31:20;10.05;;;5.35;;
34876;SDS011;21086;44.780;17.194;2024-02-26T10:33:48;9.07;;;5.53;;
34876;SDS011;21086;44.780;17.194;2024-02-26T10:36:15;10.57;;;5.97;;
34876;SDS011;21086;44.780;17.194;2024-02-26T10:38:43;7.25;;;4.97;;
34876;SDS011;21086;44.780;17.194;2024-02-26T10:41:13;8.57;;;4.72;;
34876;SDS011;21086;44.780;17.194;2024-02-26T10:43:43;8.23;;;4.53;;
34876;SDS011;21086;44.780;17.194;2024-02-26T10:46:10;11.15;;;5.25;;
34876;SDS011;21086;44.780;17.194;2024-02-26T10:48:38;8.60;;;5.28;;
34876;SDS011;21086;44.780;17.194;2024-02-26T10:51:05;6.55;;;4.50;;
34876;SDS011;21086;44.780;17.194;2024-02-26T10:53:35;14.68;;;4.82;;
34876;SDS011;21086;44.780;17.194;2024-02-26T10:56:03;9.15;;;5.13;;
34876;SDS011;21086;44.780;17.194;2024-02-26T10:58:32;7.28;;;4.78;;
34876;SDS011;21086;44.780;17.194;2024-02-26T11:00:59;7.10;;;4.15;;
34876;SDS011;21086;44.780;17.194;2024-02-26T11:03:27;9.98;;;5.15;;
34876;SDS011;21086;44.780;17.194;2024-02-26T11:05:58;5.22;;;3.58;;
34876;SDS011;21086;44.780;17.194;2024-02-26T11:08:27;7.28;;;4.20;;
34876;SDS011;21086;44.780;17.194;2024-02-26T11:10:55;8.27;;;4.35;;
34876;SDS011;21086;44.780;17.194;2024-02-26T11:13:23;7.30;;;3.65;;
34876;SDS011;21086;44.780;17.194;2024-02-26T11:15:57;5.38;;;3.80;;
34876;SDS011;21086;44.780;17.194;2024-02-26T11:18:26;6.38;;;4.32;;
34876;SDS011;21086;44.780;17.194;2024-02-26T11:20:54;7.20;;;4.28;;
34876;SDS011;21086;44.780;17.194;2024-02-26T11:23:23;10.63;;;4.18;;
34876;SDS011;21086;44.780;17.194;2024-02-26T11:25:50;12.18;;;4.78;;
34876;SDS011;21086;44.780;17.194;2024-02-26T11:28:20;16.15;;;6.03;;
34876;SDS011;21086;44.780;17.194;2024-02-26T11:30:49;5.85;;;4.18;;
34876;SDS011;21086;44.780;17.194;2024-02-26T11:33:18;6.88;;;4.50;;
34876;SDS011;21086;44.780;17.194;2024-02-26T11:35:47;7.78;;;4.00;;
34876;SDS011;21086;44.780;17.194;2024-02-26T11:38:19;7.68;;;4.15;;
34876;SDS011;21086;44.780;17.194;2024-02-26T11:40:48;6.75;;;3.58;;
34876;SDS011;21086;44.780;17.194;2024-02-26T11:43:16;6.22;;;3.70;;
34876;SDS011;21086;44.780;17.194;2024-02-26T11:48:14;8.30;;;4.90;;
34876;SDS011;21086;44.780;17.194;2024-02-26T11:50:48;5.15;;;3.10;;
34876;SDS011;21086;44.780;17.194;2024-02-26T11:53:27;6.50;;;3.35;;
34876;SDS011;21086;44.780;17.194;2024-02-26T11:56:19;9.15;;;3.95;;
34876;SDS011;21086;44.780;17.194;2024-02-26T11:59:03;6.95;;;3.58;;
34876;SDS011;21086;44.780;17.194;2024-02-26T12:01:39;5.07;;;3.33;;
34876;SDS011;21086;44.780;17.194;2024-02-26T12:04:24;7.43;;;3.10;;
34876;SDS011;21086;44.780;17.194;2024-02-26T12:06:54;5.22;;;2.72;;
34876;SDS011;21086;44.780;17.194;2024-02-26T12:09:32;4.82;;;3.25;;
34876;SDS011;21086;44.780;17.194;2024-02-26T12:12:03;5.50;;;3.35;;
34876;SDS011;21086;44.780;17.194;2024-02-26T12:14:34;8.02;;;3.22;;
34876;SDS011;21086;44.780;17.194;2024-02-26T12:17:22;3.67;;;2.60;;
34876;SDS011;21086;44.780;17.194;2024-02-26T12:19:50;5.70;;;2.88;;
34876;SDS011;21086;44.780;17.194;2024-02-26T12:22:19;4.43;;;2.45;;
34876;SDS011;21086;44.780;17.194;2024-02-26T12:24:57;6.95;;;2.53;;
34876;SDS011;21086;44.780;17.194;2024-02-26T12:27:25;6.15;;;2.85;;
34876;SDS011;21086;44.780;17.194;2024-02-26T12:29:52;3.83;;;2.08;;
34876;SDS011;21086;44.780;17.194;2024-02-26T12:32:20;2.78;;;2.17;;
34876;SDS011;21086;44.780;17.194;2024-02-26T12:34:47;6.15;;;3.22;;
34876;SDS011;21086;44.780;17.194;2024-02-26T12:37:16;5.43;;;2.55;;
34876;SDS011;21086;44.780;17.194;2024-02-26T12:39:43;4.32;;;2.47;;
34876;SDS011;21086;44.780;17.194;2024-02-26T12:42:12;6.82;;;3.08;;
34876;SDS011;21086;44.780;17.194;2024-02-26T12:44:41;4.68;;;2.40;;
34876;SDS011;21086;44.780;17.194;2024-02-26T12:47:08;3.75;;;2.60;;
34876;SDS011;21086;44.780;17.194;2024-02-26T12:49:38;5.03;;;2.80;;
34876;SDS011;21086;44.780;17.194;2024-02-26T12:52:08;6.05;;;3.13;;
34876;SDS011;21086;44.780;17.194;2024-02-26T12:54:35;7.43;;;3.13;;
34876;SDS011;21086;44.780;17.194;2024-02-26T12:57:05;6.55;;;3.15;;
34876;SDS011;21086;44.780;17.194;2024-02-26T12:59:34;7.47;;;3.10;;
34876;SDS011;21086;44.780;17.194;2024-02-26T13:02:02;5.03;;;2.75;;
34876;SDS011;21086;44.780;17.194;2024-02-26T13:04:33;7.47;;;3.70;;
34876;SDS011;21086;44.780;17.194;2024-02-26T13:07:03;4.82;;;2.85;;
34876;SDS011;21086;44.780;17.194;2024-02-26T13:09:32;7.47;;;2.88;;
34876;SDS011;21086;44.780;17.194;2024-02-26T13:12:03;6.03;;;2.90;;
34876;SDS011;21086;44.780;17.194;2024-02-26T13:14:32;4.30;;;2.83;;
34876;SDS011;21086;44.780;17.194;2024-02-26T13:17:00;7.32;;;2.85;;
34876;SDS011;21086;44.780;17.194;2024-02-26T13:19:27;4.75;;;2.72;;
34876;SDS011;21086;44.780;17.194;2024-02-26T13:21:55;3.92;;;2.25;;
34876;SDS011;21086;44.780;17.194;2024-02-26T13:24:22;6.80;;;5.20;;
34876;SDS011;21086;44.780;17.194;2024-02-26T13:26:55;2.67;;;2.00;;
34876;SDS011;21086;44.780;17.194;2024-02-26T13:29:22;6.57;;;2.95;;
34876;SDS011;21086;44.780;17.194;2024-02-26T13:31:55;5.75;;;2.30;;
34876;SDS011;21086;44.780;17.194;2024-02-26T13:34:27;4.22;;;2.75;;
34876;SDS011;21086;44.780;17.194;2024-02-26T13:36:57;5.50;;;2.97;;
34876;SDS011;21086;44.780;17.194;2024-02-26T13:39:24;4.07;;;2.30;;
34876;SDS011;21086;44.780;17.194;2024-02-26T13:41:53;6.82;;;3.28;;
34876;SDS011;21086;44.780;17.194;2024-02-26T13:44:21;3.95;;;2.00;;
34876;SDS011;21086;44.780;17.194;2024-02-26T13:46:48;4.57;;;2.05;;
34876;SDS011;21086;44.780;17.194;2024-02-26T13:49:16;4.40;;;3.25;;
34876;SDS011;21086;44.780;17.194;2024-02-26T13:51:43;5.28;;;2.78;;
34876;SDS011;21086;44.780;17.194;2024-02-26T13:54:10;4.85;;;3.28;;
34876;SDS011;21086;44.780;17.194;2024-02-26T13:56:38;4.00;;;2.70;;
34876;SDS011;21086;44.780;17.194;2024-02-26T13:59:05;5.65;;;3.15;;
34876;SDS011;21086;44.780;17.194;2024-02-26T14:01:32;6.45;;;2.70;;
34876;SDS011;21086;44.780;17.194;2024-02-26T14:04:00;6.85;;;3.10;;
34876;SDS011;21086;44.780;17.194;2024-02-26T14:06:29;7.05;;;3.75;;
34876;SDS011;21086;44.780;17.194;2024-02-26T14:08:57;7.22;;;2.97;;
34876;SDS011;21086;44.780;17.194;2024-02-26T14:11:25;7.35;;;3.70;;
34876;SDS011;21086;44.780;17.194;2024-02-26T14:13:54;10.70;;;3.70;;
34876;SDS011;21086;44.780;17.194;2024-02-26T14:16:22;5.07;;;3.03;;
34876;SDS011;21086;44.780;17.194;2024-02-26T14:18:49;6.85;;;3.15;;
34876;SDS011;21086;44.780;17.194;2024-02-26T14:21:16;4.90;;;2.75;;
34876;SDS011;21086;44.780;17.194;2024-02-26T14:23:43;15.60;;;2.95;;